< < Back
Terminal Aerodrome Forecast


Current Version              Previous Versions:   1  2  3  4  5  6  7  8  9  

Terminal Aerodrome Forecast

003
FTUS44 KMRX 161127
TAFCHA
TAF
KCHA 161127Z 1612/1712 02009G14KT P6SM SKC
     FM161700 12007KT P6SM SKC
     FM170000 VRB04KT P6SM SKC=

Latest METAR

669
SAUS80 KWBC 171500 RRA
MTRCHA
METAR KCHA 171453Z 10009KT 10SM BKN250 12/M02 A3043 RMK AO2 SLP303
T01221017 51013


USA.gov is the U.S. government's official web portal to all federal, state and local government web resources and services.